createdAt,value
2023-04-02T00:01:37.090Z,4.10
2023-04-02T00:04:22.510Z,2.93
2023-04-02T00:06:55.123Z,2.70
2023-04-02T00:09:37.312Z,3.27
2023-04-02T00:12:19.813Z,3.87
2023-04-02T00:14:51.588Z,3.67
2023-04-02T00:17:21.776Z,3.07
2023-04-02T00:19:56.642Z,3.20
2023-04-02T00:22:29.021Z,3.63
2023-04-02T00:25:20.439Z,3.10
2023-04-02T00:27:50.032Z,4.00
2023-04-02T00:30:19.957Z,3.93
2023-04-02T00:32:49.130Z,3.57
2023-04-02T00:35:22.298Z,3.00
2023-04-02T00:37:52.687Z,3.60
2023-04-02T00:40:24.783Z,3.40
2023-04-02T00:42:58.814Z,3.40
2023-04-02T00:45:29.654Z,3.27
2023-04-02T00:48:00.018Z,3.43
2023-04-02T00:50:33.913Z,3.53
2023-04-02T00:53:11.577Z,2.83
2023-04-02T00:55:42.159Z,3.13
2023-04-02T00:58:23.385Z,3.40
2023-04-02T01:00:53.035Z,2.97
2023-04-02T01:03:38.105Z,3.40
2023-04-02T01:06:12.257Z,3.33
2023-04-02T01:09:02.000Z,2.87
2023-04-02T01:11:48.054Z,3.27
2023-04-02T01:14:27.841Z,2.93
2023-04-02T01:17:03.883Z,3.00
2023-04-02T01:20:03.263Z,4.27
2023-04-02T01:22:42.430Z,2.60
2023-04-02T01:25:18.512Z,2.53
2023-04-02T01:27:52.620Z,2.17
2023-04-02T01:30:23.554Z,2.97
2023-04-02T01:32:51.901Z,2.63
2023-04-02T01:35:20.447Z,2.90
2023-04-02T01:37:56.816Z,2.50
2023-04-02T01:40:45.712Z,3.30
2023-04-02T01:43:21.671Z,3.10
2023-04-02T01:45:52.806Z,2.33
2023-04-02T01:48:24.580Z,2.17
2023-04-02T01:50:55.198Z,2.63
2023-04-02T01:53:28.686Z,2.30
2023-04-02T01:55:59.744Z,2.40
2023-04-02T01:58:32.121Z,2.50
2023-04-02T02:01:07.291Z,2.53
2023-04-02T02:03:37.028Z,2.50
2023-04-02T02:06:07.680Z,3.00
2023-04-02T02:08:47.110Z,2.10
2023-04-02T02:11:37.478Z,2.33
2023-04-02T02:14:14.560Z,2.60
2023-04-02T02:19:38.428Z,2.40
2023-04-02T02:22:13.567Z,2.83
2023-04-02T02:24:43.614Z,2.10
2023-04-02T02:27:57.159Z,2.03
2023-04-02T02:30:29.962Z,2.63
2023-04-02T02:33:05.107Z,3.00
2023-04-02T02:35:38.127Z,1.80
2023-04-02T02:38:39.313Z,3.07
2023-04-02T02:41:20.723Z,2.43
2023-04-02T02:44:01.034Z,1.93
2023-04-02T02:46:31.112Z,2.90
2023-04-02T02:49:05.547Z,2.90
2023-04-02T02:51:43.520Z,2.07
2023-04-02T02:54:19.496Z,2.40
2023-04-02T02:56:53.153Z,2.43
2023-04-02T02:59:22.982Z,2.80
2023-04-02T03:01:53.434Z,2.50
2023-04-02T03:04:24.442Z,2.80
2023-04-02T03:06:59.016Z,2.73
2023-04-02T03:09:37.676Z,2.20
2023-04-02T03:12:21.543Z,2.37
2023-04-02T03:14:57.330Z,2.10
2023-04-02T03:17:31.592Z,3.00
2023-04-02T03:20:08.228Z,3.30
2023-04-02T03:22:42.400Z,2.47
2023-04-02T03:25:24.457Z,2.70
2023-04-02T03:28:03.602Z,3.40
2023-04-02T03:30:40.320Z,2.50
2023-04-02T03:33:18.299Z,3.43
2023-04-02T03:35:59.369Z,2.40
2023-04-02T03:38:31.913Z,2.57
2023-04-02T03:41:06.041Z,2.90
2023-04-02T03:43:43.792Z,2.70
2023-04-02T03:46:25.432Z,3.37
2023-04-02T03:48:57.780Z,2.77
2023-04-02T03:51:34.207Z,3.47
2023-04-02T03:54:04.119Z,3.63
2023-04-02T03:56:40.235Z,3.30
2023-04-02T03:59:17.530Z,4.13
2023-04-02T04:01:54.802Z,3.87
2023-04-02T04:04:26.801Z,4.13
2023-04-02T04:06:58.694Z,3.97
2023-04-02T04:09:30.903Z,3.83
2023-04-02T04:12:09.500Z,4.27
2023-04-02T04:14:45.171Z,4.47
2023-04-02T04:17:26.375Z,3.87
2023-04-02T04:20:08.036Z,3.90
2023-04-02T04:22:38.663Z,4.10
2023-04-02T04:25:23.106Z,4.27
2023-04-02T04:28:08.085Z,4.47
2023-04-02T04:30:50.848Z,4.77
2023-04-02T04:33:25.196Z,5.67
2023-04-02T04:36:01.633Z,6.43
2023-04-02T04:38:40.726Z,4.80
2023-04-02T04:41:17.358Z,4.80
2023-04-02T04:43:52.306Z,4.63
2023-04-02T04:46:26.738Z,4.80
2023-04-02T04:49:04.597Z,4.83
2023-04-02T04:51:38.786Z,5.53
2023-04-02T04:54:14.797Z,5.60
2023-04-02T04:56:52.455Z,5.40
2023-04-02T04:59:25.024Z,5.40
2023-04-02T05:02:01.865Z,5.90
2023-04-02T05:04:36.758Z,6.00
2023-04-02T05:07:13.483Z,7.00
2023-04-02T05:09:53.986Z,5.20
2023-04-02T05:12:35.748Z,5.63
2023-04-02T05:15:18.239Z,6.57
2023-04-02T05:17:55.722Z,7.00
2023-04-02T05:20:28.674Z,5.00
2023-04-02T05:23:03.919Z,5.40
2023-04-02T05:25:34.959Z,6.30
2023-04-02T05:28:13.690Z,6.40
2023-04-02T05:30:53.077Z,5.63
2023-04-02T05:33:27.018Z,5.90
2023-04-02T05:36:04.013Z,5.80
2023-04-02T05:38:38.489Z,5.30
2023-04-02T05:41:18.768Z,5.57
2023-04-02T05:43:50.277Z,5.33
2023-04-02T05:46:23.429Z,5.93
2023-04-02T05:48:57.318Z,6.80
2023-04-02T05:51:31.982Z,7.50
2023-04-02T05:54:04.189Z,6.37
2023-04-02T05:56:39.423Z,7.20
2023-04-02T05:59:14.121Z,6.57
2023-04-02T06:01:47.236Z,7.70
2023-04-02T06:04:27.784Z,6.60
2023-04-02T06:07:00.642Z,5.70
2023-04-02T06:09:39.191Z,6.83
2023-04-02T06:12:24.546Z,6.70
2023-04-02T06:14:54.933Z,6.93
2023-04-02T06:17:26.330Z,5.63
2023-04-02T06:19:57.280Z,5.90
2023-04-02T06:22:32.723Z,6.50
2023-04-02T06:25:04.416Z,5.97
2023-04-02T06:27:43.108Z,6.17
2023-04-02T06:30:19.636Z,5.10
2023-04-02T06:32:51.825Z,6.93
2023-04-02T06:35:24.998Z,5.63
2023-04-02T06:38:04.166Z,7.00
2023-04-02T06:40:44.937Z,5.40
2023-04-02T06:43:40.098Z,5.90
2023-04-02T06:46:40.159Z,5.70
2023-04-02T06:49:21.009Z,5.40
2023-04-02T06:51:54.830Z,5.50
2023-04-02T06:54:24.984Z,5.33
2023-04-02T06:57:00.514Z,5.53
2023-04-02T06:59:42.989Z,4.80
2023-04-02T07:02:29.292Z,5.00
2023-04-02T07:05:04.958Z,5.10
2023-04-02T07:07:35.463Z,5.10
2023-04-02T07:10:09.027Z,4.23
2023-04-02T07:12:37.589Z,4.90
2023-04-02T07:15:08.473Z,4.40
2023-04-02T07:17:36.986Z,5.40
2023-04-02T07:20:06.903Z,5.27
2023-04-02T07:22:35.265Z,4.17
2023-04-02T07:25:04.511Z,4.37
2023-04-02T07:27:33.385Z,4.73
2023-04-02T07:30:01.926Z,4.43
2023-04-02T07:32:31.695Z,3.77
2023-04-02T07:35:00.346Z,3.83
2023-04-02T07:37:28.361Z,3.80
2023-04-02T07:39:56.832Z,3.80
2023-04-02T07:42:24.848Z,3.43
2023-04-02T07:44:53.383Z,3.63
2023-04-02T07:47:22.838Z,3.50
2023-04-02T07:49:54.585Z,2.70
2023-04-02T07:52:23.212Z,2.80
2023-04-02T07:54:51.576Z,2.40
2023-04-02T07:57:19.834Z,2.93
2023-04-02T07:59:48.930Z,2.83
2023-04-02T08:02:21.307Z,3.00
2023-04-02T08:04:50.019Z,2.30
2023-04-02T08:07:19.950Z,3.00
2023-04-02T08:09:48.375Z,2.40
2023-04-02T08:12:16.812Z,2.10
2023-04-02T08:14:44.778Z,2.50
2023-04-02T08:17:13.831Z,2.40
2023-04-02T08:19:54.144Z,2.70
2023-04-02T08:22:24.344Z,2.50
2023-04-02T08:24:52.788Z,2.10
2023-04-02T08:27:20.851Z,2.20
2023-04-02T08:29:48.944Z,1.93
2023-04-02T08:32:21.250Z,2.13
2023-04-02T08:34:49.323Z,2.07
2023-04-02T08:37:17.829Z,2.13
2023-04-02T08:39:48.045Z,2.10
2023-04-02T08:42:24.395Z,2.20
2023-04-02T08:45:21.120Z,2.07
2023-04-02T08:47:57.258Z,3.00
2023-04-02T08:50:31.862Z,3.13
2023-04-02T08:53:05.930Z,2.07
2023-04-02T08:55:42.858Z,1.83
2023-04-02T08:58:25.340Z,2.07
2023-04-02T09:00:56.533Z,1.80
2023-04-02T09:03:32.223Z,1.87
2023-04-02T09:06:02.928Z,1.90
2023-04-02T09:08:35.490Z,1.53
2023-04-02T09:11:08.813Z,1.93
2023-04-02T09:13:42.040Z,1.90
2023-04-02T09:16:15.007Z,1.50
2023-04-02T09:18:45.358Z,1.90
2023-04-02T09:21:30.168Z,1.93
2023-04-02T09:23:58.523Z,5.33
2023-04-02T09:26:30.978Z,2.00
2023-04-02T09:29:25.263Z,2.10
2023-04-02T09:32:03.647Z,1.67
2023-04-02T09:34:34.368Z,2.00
2023-04-02T09:37:09.376Z,2.70
2023-04-02T09:39:39.125Z,2.17
2023-04-02T09:42:28.739Z,1.90
2023-04-02T09:45:20.876Z,1.93
2023-04-02T09:47:49.560Z,2.03
2023-04-02T09:50:31.538Z,1.90
2023-04-02T09:53:17.648Z,2.03
2023-04-02T09:55:47.122Z,2.00
2023-04-02T09:58:18.457Z,1.87
2023-04-02T10:00:54.562Z,1.73
2023-04-02T10:03:26.736Z,1.90
2023-04-02T10:06:10.423Z,1.80
2023-04-02T10:08:40.637Z,1.80
2023-04-02T10:11:12.724Z,1.57
2023-04-02T10:13:51.825Z,2.03
2023-04-02T10:16:26.924Z,2.00
2023-04-02T10:18:59.140Z,1.50
2023-04-02T10:21:32.226Z,1.80
2023-04-02T10:24:03.222Z,2.27
2023-04-02T10:26:49.518Z,3.27
2023-04-02T10:29:38.476Z,1.67
2023-04-02T10:32:15.334Z,1.73
2023-04-02T10:34:49.266Z,1.30
2023-04-02T10:38:39.691Z,2.17
2023-04-02T10:41:24.561Z,1.33
2023-04-02T10:44:20.899Z,1.43
2023-04-02T10:47:04.700Z,1.63
2023-04-02T10:49:42.898Z,1.50
2023-04-02T10:52:19.987Z,2.00
2023-04-02T10:54:51.179Z,2.20
2023-04-02T10:57:28.738Z,3.33
2023-04-02T11:00:09.586Z,2.67
2023-04-02T11:02:47.851Z,2.33
2023-04-02T11:05:44.546Z,2.43
2023-04-02T11:08:21.603Z,2.10
2023-04-02T11:10:58.520Z,2.03
2023-04-02T11:13:32.377Z,1.90
2023-04-02T11:16:01.691Z,1.50
2023-04-02T11:18:35.721Z,1.60
2023-04-02T11:21:07.755Z,2.10
2023-04-02T11:23:52.237Z,1.57
2023-04-02T11:26:41.663Z,1.73
2023-04-02T11:29:21.041Z,1.83
2023-04-02T11:31:51.955Z,2.10
2023-04-02T11:35:07.074Z,1.50
2023-04-02T11:37:41.079Z,2.03
2023-04-02T11:40:51.099Z,1.87
2023-04-02T11:43:49.136Z,1.30
2023-04-02T11:46:45.311Z,1.63
2023-04-02T11:49:37.597Z,1.10
2023-04-02T11:52:20.118Z,1.30
2023-04-02T11:54:59.608Z,1.80
2023-04-02T11:57:48.106Z,1.63
2023-04-02T12:00:32.409Z,2.17
2023-04-02T12:03:21.692Z,1.83
2023-04-02T12:05:58.487Z,1.70
2023-04-02T12:08:50.673Z,1.30
2023-04-02T12:11:35.269Z,1.10
2023-04-02T12:14:28.705Z,1.63
2023-04-02T12:16:57.915Z,1.43
2023-04-02T12:19:26.897Z,1.30
2023-04-02T12:21:56.326Z,1.57
2023-04-02T12:24:27.077Z,1.43
2023-04-02T12:27:15.437Z,1.70
2023-04-02T12:29:44.467Z,1.70
2023-04-02T12:32:22.932Z,1.57
2023-04-02T12:34:53.497Z,1.60
2023-04-02T12:37:28.604Z,1.37
2023-04-02T12:39:58.825Z,1.27
2023-04-02T12:42:32.650Z,1.33
2023-04-02T12:45:01.696Z,1.50
2023-04-02T12:47:30.788Z,1.40
2023-04-02T12:50:01.320Z,1.40
2023-04-02T12:52:30.614Z,1.10
2023-04-02T12:55:02.434Z,1.70
2023-04-02T12:57:39.504Z,1.40
2023-04-02T13:00:31.831Z,1.30
2023-04-02T13:03:03.162Z,1.33
2023-04-02T13:05:39.831Z,1.10
2023-04-02T13:08:16.549Z,1.27
2023-04-02T13:10:45.696Z,1.40
2023-04-02T13:13:27.736Z,1.60
2023-04-02T13:16:08.018Z,1.20
2023-04-02T13:18:40.468Z,1.93
2023-04-02T13:21:28.434Z,1.10
2023-04-02T13:23:57.313Z,2.50
2023-04-02T13:26:28.844Z,1.47
2023-04-02T13:29:00.885Z,1.70
2023-04-02T13:31:29.913Z,1.23
2023-04-02T13:33:57.957Z,1.20
2023-04-02T13:36:29.037Z,1.50
2023-04-02T13:38:57.427Z,1.40
2023-04-02T13:41:27.778Z,1.50
2023-04-02T13:43:57.969Z,1.80
2023-04-02T13:46:30.552Z,1.60
2023-04-02T13:48:59.891Z,1.60
2023-04-02T13:51:36.598Z,1.47
2023-04-02T13:54:09.838Z,1.77
2023-04-02T13:56:38.952Z,1.70
2023-04-02T13:59:08.696Z,1.60
2023-04-02T14:01:38.507Z,1.50
2023-04-02T14:04:09.183Z,1.40
2023-04-02T14:07:05.630Z,1.60
2023-04-02T14:09:43.948Z,1.73
2023-04-02T14:12:22.400Z,1.67
2023-04-02T14:15:28.289Z,1.30
2023-04-02T14:18:23.984Z,1.70
2023-04-02T14:21:05.649Z,1.80
2023-04-02T14:23:48.965Z,1.50
2023-04-02T14:26:23.938Z,1.40
2023-04-02T14:29:02.580Z,1.50
2023-04-02T14:31:39.480Z,1.70
2023-04-02T14:34:19.304Z,1.57
2023-04-02T14:36:59.363Z,1.90
2023-04-02T14:40:12.145Z,1.20
2023-04-02T14:42:45.243Z,1.33
2023-04-02T14:45:23.453Z,1.50
2023-04-02T14:47:55.780Z,1.37
2023-04-02T14:50:36.734Z,2.00
2023-04-02T14:53:15.069Z,1.80
2023-04-02T14:55:52.679Z,1.70
2023-04-02T14:58:26.342Z,1.30
2023-04-02T15:00:59.521Z,1.67
2023-04-02T15:03:36.018Z,1.30
2023-04-02T15:06:11.219Z,1.37
2023-04-02T15:08:52.216Z,1.90
2023-04-02T15:11:28.610Z,1.43
2023-04-02T15:14:03.970Z,1.70
2023-04-02T15:16:33.643Z,1.43
2023-04-02T15:19:02.659Z,1.70
2023-04-02T15:21:55.780Z,1.30
2023-04-02T15:24:36.614Z,1.37
2023-04-02T15:27:25.585Z,1.10
2023-04-02T15:30:00.836Z,1.30
2023-04-02T15:32:37.158Z,2.07
2023-04-02T15:35:17.388Z,1.70
2023-04-02T15:37:56.679Z,1.90
2023-04-02T15:40:46.878Z,1.33
2023-04-02T15:43:22.598Z,1.40
2023-04-02T15:46:00.531Z,1.67
2023-04-02T15:49:06.686Z,1.63
2023-04-02T15:51:43.107Z,1.40
2023-04-02T15:54:27.895Z,1.50
2023-04-02T15:57:09.908Z,1.10
2023-04-02T16:00:05.549Z,1.60
2023-04-02T16:03:36.758Z,1.57
2023-04-02T16:06:27.706Z,1.60
2023-04-02T16:09:19.127Z,1.87
2023-04-02T16:11:47.370Z,1.37
2023-04-02T16:14:25.396Z,1.20
2023-04-02T16:16:58.522Z,1.37
2023-04-02T16:19:33.411Z,1.70
2023-04-02T16:22:06.995Z,1.53
2023-04-02T16:24:37.007Z,1.63
2023-04-02T16:27:21.561Z,1.70
2023-04-02T16:30:18.017Z,1.60
2023-04-02T16:32:59.464Z,1.63
2023-04-02T16:35:43.159Z,1.60
2023-04-02T16:38:25.032Z,1.70
2023-04-02T16:41:08.260Z,1.77
2023-04-02T16:43:47.371Z,1.90
2023-04-02T16:46:38.304Z,1.60
2023-04-02T16:49:20.809Z,1.40
2023-04-02T16:52:00.521Z,1.40
2023-04-02T16:54:36.263Z,1.70
2023-04-02T16:57:25.603Z,1.70
2023-04-02T17:00:01.901Z,1.43
2023-04-02T17:02:43.942Z,1.60
2023-04-02T17:05:21.551Z,1.37
2023-04-02T17:08:02.932Z,1.70
2023-04-02T17:10:33.466Z,1.80
2023-04-02T17:13:16.819Z,1.87
2023-04-02T17:15:49.799Z,1.40
2023-04-02T17:18:20.624Z,1.40
2023-04-02T17:20:49.244Z,1.77
2023-04-02T17:23:18.825Z,1.40
2023-04-02T17:25:51.657Z,1.43
2023-04-02T17:28:26.185Z,1.63
2023-04-02T17:30:58.074Z,1.33
2023-04-02T17:33:28.782Z,1.57
2023-04-02T17:36:10.182Z,1.97
2023-04-02T17:38:41.782Z,1.60
2023-04-02T17:41:17.411Z,2.10
2023-04-02T17:43:53.592Z,1.50
2023-04-02T17:46:29.830Z,1.77
2023-04-02T17:49:07.173Z,1.90
2023-04-02T17:51:40.970Z,1.47
2023-04-02T17:54:30.999Z,1.80
2023-04-02T17:57:32.955Z,1.73
2023-04-02T18:00:16.302Z,2.10
2023-04-02T18:03:00.811Z,2.20
2023-04-02T18:05:40.763Z,4.13
2023-04-02T18:08:16.494Z,3.80
2023-04-02T18:10:54.018Z,1.97
2023-04-02T18:13:34.570Z,2.23
2023-04-02T18:16:15.449Z,2.47
2023-04-02T18:18:54.797Z,2.43
2023-04-02T18:21:33.668Z,1.63
2023-04-02T18:24:16.517Z,1.90
2023-04-02T18:26:53.834Z,2.30
2023-04-02T18:29:30.885Z,2.10
2023-04-02T18:32:27.976Z,2.90
2023-04-02T18:35:07.446Z,2.10
2023-04-02T18:37:43.751Z,2.40
2023-04-02T18:40:27.982Z,2.67
2023-04-02T18:43:03.572Z,3.50
2023-04-02T18:45:44.139Z,3.70
2023-04-02T18:48:29.256Z,3.43
2023-04-02T18:51:00.715Z,4.10
2023-04-02T18:53:32.245Z,2.73
2023-04-02T18:56:05.585Z,2.13
2023-04-02T18:58:41.783Z,3.03
2023-04-02T19:01:18.534Z,3.57
2023-04-02T19:03:52.536Z,3.60
2023-04-02T19:06:25.337Z,4.47
2023-04-02T19:08:59.907Z,4.63
2023-04-02T19:11:30.065Z,4.83
2023-04-02T19:14:01.115Z,5.50
2023-04-02T19:16:49.176Z,4.27
2023-04-02T19:19:24.081Z,4.03
2023-04-02T19:22:17.094Z,4.30
2023-04-02T19:25:15.431Z,7.20
2023-04-02T19:27:55.047Z,8.50
2023-04-02T19:30:39.143Z,8.17
2023-04-02T19:33:18.728Z,6.17
2023-04-02T19:35:53.766Z,5.33
2023-04-02T19:38:40.208Z,6.50
2023-04-02T19:41:21.176Z,8.60
2023-04-02T19:43:50.048Z,4.90
2023-04-02T19:46:18.121Z,5.17
2023-04-02T19:48:53.107Z,6.63
2023-04-02T19:51:22.860Z,6.70
2023-04-02T19:53:50.919Z,5.13
2023-04-02T19:56:18.913Z,4.80
2023-04-02T19:58:49.841Z,4.40
2023-04-02T20:01:18.795Z,6.03
2023-04-02T20:03:46.934Z,5.67
2023-04-02T20:06:16.840Z,5.03
2023-04-02T20:08:46.629Z,4.53
2023-04-02T20:11:15.468Z,3.50
2023-04-02T20:13:43.542Z,4.40
2023-04-02T20:16:11.805Z,4.23
2023-04-02T20:18:40.860Z,4.80
2023-04-02T20:21:09.709Z,3.93
2023-04-02T20:23:37.921Z,3.33
2023-04-02T20:26:07.302Z,3.37
2023-04-02T20:28:36.160Z,3.60
2023-04-02T20:31:09.533Z,4.10
2023-04-02T20:33:38.437Z,4.50
2023-04-02T20:36:08.644Z,4.20
2023-04-02T20:38:37.587Z,4.23
2023-04-02T20:41:08.442Z,3.17
2023-04-02T20:43:37.580Z,3.23
2023-04-02T20:46:10.103Z,4.43
2023-04-02T20:48:40.463Z,4.20
2023-04-02T20:51:10.386Z,4.20
2023-04-02T20:53:39.130Z,4.00
2023-04-02T20:56:14.067Z,4.00
2023-04-02T20:58:42.851Z,4.77
2023-04-02T21:01:12.914Z,5.00
2023-04-02T21:03:41.812Z,4.13
2023-04-02T21:06:15.155Z,4.37
2023-04-02T21:08:43.832Z,4.30
2023-04-02T21:11:13.505Z,4.90
2023-04-02T21:13:44.178Z,4.10
2023-04-02T21:16:15.879Z,5.00
2023-04-02T21:18:45.010Z,4.77
2023-04-02T21:21:14.306Z,4.43
2023-04-02T21:23:44.819Z,4.90
2023-04-02T21:26:18.412Z,4.27
2023-04-02T21:28:52.882Z,4.37
2023-04-02T21:31:24.188Z,4.53
2023-04-02T21:33:54.523Z,5.13
2023-04-02T21:36:25.500Z,4.90
2023-04-02T21:38:55.494Z,4.33
2023-04-02T21:41:27.799Z,4.70
2023-04-02T21:43:57.400Z,4.93
2023-04-02T21:46:28.773Z,5.60
2023-04-02T21:49:00.240Z,5.47
2023-04-02T21:51:29.900Z,5.03
2023-04-02T21:53:58.112Z,6.37
2023-04-02T21:56:30.885Z,6.30
2023-04-02T21:59:01.728Z,5.33
2023-04-02T22:01:33.329Z,4.93
2023-04-02T22:04:03.866Z,4.70
2023-04-02T22:06:38.716Z,5.20
2023-04-02T22:09:11.129Z,4.67
2023-04-02T22:11:44.951Z,5.07
2023-04-02T22:14:13.076Z,3.70
2023-04-02T22:16:42.130Z,5.13
2023-04-02T22:19:16.623Z,5.33
2023-04-02T22:21:46.330Z,4.83
2023-04-02T22:24:19.363Z,6.03
2023-04-02T22:26:49.578Z,5.93
2023-04-02T22:29:17.916Z,6.10
2023-04-02T22:31:46.143Z,5.90
2023-04-02T22:34:16.528Z,5.60
2023-04-02T22:36:44.622Z,6.20
2023-04-02T22:39:15.362Z,4.97
2023-04-02T22:41:43.957Z,5.40
2023-04-02T22:44:16.745Z,5.00
2023-04-02T22:46:47.429Z,6.60
2023-04-02T22:49:18.924Z,5.23
2023-04-02T22:51:48.926Z,5.63
2023-04-02T22:54:17.158Z,5.27
2023-04-02T22:56:45.381Z,5.90
2023-04-02T22:59:15.589Z,6.20
2023-04-02T23:01:43.923Z,6.27
2023-04-02T23:04:12.690Z,5.67
2023-04-02T23:06:41.862Z,6.80
2023-04-02T23:09:10.041Z,6.30
2023-04-02T23:11:38.685Z,5.73
2023-04-02T23:14:07.811Z,5.87
2023-04-02T23:16:37.296Z,6.73
2023-04-02T23:19:06.396Z,6.40
2023-04-02T23:21:35.203Z,5.67
2023-04-02T23:24:03.726Z,5.80
2023-04-02T23:26:32.056Z,6.30
2023-04-02T23:29:02.324Z,6.13
2023-04-02T23:31:31.720Z,6.30
2023-04-02T23:34:01.113Z,6.10
2023-04-02T23:36:31.701Z,5.53
2023-04-02T23:39:02.692Z,5.63
2023-04-02T23:41:32.555Z,6.13
2023-04-02T23:44:00.718Z,6.30
2023-04-02T23:46:32.454Z,6.93
2023-04-02T23:49:02.725Z,6.13
2023-04-02T23:51:32.768Z,6.03
2023-04-02T23:54:02.312Z,6.27
2023-04-02T23:56:30.330Z,5.70
2023-04-02T23:58:59.895Z,7.27
